KAY55 LFPB-EHWO
Flight info
| Callsign | KAY55 |
|---|---|
| Flight time | 0h 37m |
| Altitude | 22000 |
| Route | NURMO N874 VEKIN N873 HELEN |
| Aircraft | A333/H-SDE3GHIJ2J3J5M1RVWXY/LB2D1 |
Departure
| Time | 2026-05-04 19:50 |
|---|---|
| Airport | Paris-Le Bourget International Airport (LFPB) |
Arrival
| Time | 2026-05-04 20:27 |
|---|---|
| Airport | Woensdrecht Air Base (EHWO) |
| Time | Latitude | Longitude | Altitude | Speed | Heading |
|---|---|---|---|---|---|
| 2026-05-04 19:27 | 48.94729 | 2.43069 | 157 ft | 0 kts | 340° |
| 2026-05-04 19:41 | 48.94745 | 2.43061 | 156 ft | 6 kts | 340° |
| 2026-05-04 19:41 | 48.94788 | 2.43013 | 156 ft | 10 kts | 303° |
| 2026-05-04 19:42 | 48.94821 | 2.42907 | 155 ft | 12 kts | 295° |
| 2026-05-04 19:42 | 48.94864 | 2.42767 | 154 ft | 17 kts | 294° |
| 2026-05-04 19:42 | 48.94909 | 2.42602 | 157 ft | 17 kts | 295° |
| 2026-05-04 19:42 | 48.94967 | 2.42463 | 157 ft | 15 kts | 329° |
| 2026-05-04 19:43 | 48.95070 | 2.42448 | 159 ft | 15 kts | 19° |
| 2026-05-04 19:43 | 48.95175 | 2.42521 | 159 ft | 19 kts | 25° |
| 2026-05-04 19:43 | 48.95311 | 2.42617 | 160 ft | 24 kts | 25° |
| 2026-05-04 19:43 | 48.95477 | 2.42733 | 160 ft | 27 kts | 25° |
| 2026-05-04 19:44 | 48.95650 | 2.42855 | 161 ft | 27 kts | 25° |
| 2026-05-04 19:44 | 48.95825 | 2.42978 | 161 ft | 28 kts | 25° |
| 2026-05-04 19:44 | 48.95942 | 2.43061 | 161 ft | 11 kts | 25° |
| 2026-05-04 19:44 | 48.96011 | 2.43028 | 157 ft | 14 kts | 309° |
| 2026-05-04 19:45 | 48.96085 | 2.42886 | 157 ft | 20 kts | 308° |
| 2026-05-04 19:45 | 48.96180 | 2.42706 | 162 ft | 23 kts | 308° |
| 2026-05-04 19:45 | 48.96267 | 2.42506 | 165 ft | 23 kts | 281° |
| 2026-05-04 19:45 | 48.96263 | 2.42252 | 164 ft | 23 kts | 267° |
| 2026-05-04 19:46 | 48.96290 | 2.42076 | 163 ft | 16 kts | 320° |
| 2026-05-04 19:46 | 48.96383 | 2.42068 | 159 ft | 11 kts | 21° |
| 2026-05-04 19:46 | 48.96416 | 2.42145 | 160 ft | 3 kts | 68° |
| 2026-05-04 19:46 | 48.96418 | 2.42149 | 160 ft | 0 kts | 68° |
| 2026-05-04 19:49 | 48.96437 | 2.42225 | 162 ft | 29 kts | 68° |
| 2026-05-04 19:49 | 48.96607 | 2.42845 | 179 ft | 96 kts | 67° |
| 2026-05-04 19:49 | 48.96940 | 2.44088 | 210 ft | 155 kts | 68° |
| 2026-05-04 19:49 | 48.97368 | 2.45744 | 767 ft | 168 kts | 68° |
| 2026-05-04 19:50 | 48.97616 | 2.47434 | 1689 ft | 171 kts | 92° |
| 2026-05-04 19:50 | 48.97453 | 2.49401 | 2131 ft | 202 kts | 98° |
| 2026-05-04 19:50 | 48.97209 | 2.51651 | 2497 ft | 230 kts | 98° |
| 2026-05-04 19:50 | 48.96957 | 2.54202 | 2997 ft | 251 kts | 97° |
| 2026-05-04 19:51 | 48.96729 | 2.56835 | 3849 ft | 255 kts | 96° |
| 2026-05-04 19:51 | 48.96513 | 2.59530 | 4782 ft | 259 kts | 96° |
| 2026-05-04 19:51 | 48.96302 | 2.62273 | 5705 ft | 262 kts | 96° |
| 2026-05-04 19:51 | 48.96094 | 2.65060 | 6611 ft | 268 kts | 96° |
| 2026-05-04 19:52 | 48.96031 | 2.67929 | 7461 ft | 274 kts | 85° |
| 2026-05-04 19:52 | 48.96528 | 2.70753 | 8401 ft | 279 kts | 64° |
| 2026-05-04 19:52 | 48.97683 | 2.73093 | 9318 ft | 284 kts | 45° |
| 2026-05-04 19:52 | 48.99162 | 2.75143 | 10196 ft | 290 kts | 41° |
| 2026-05-04 19:53 | 49.00759 | 2.77200 | 10600 ft | 312 kts | 40° |
| 2026-05-04 19:53 | 49.02492 | 2.79403 | 10942 ft | 334 kts | 40° |
| 2026-05-04 19:53 | 49.04304 | 2.81714 | 11547 ft | 344 kts | 40° |
| 2026-05-04 19:53 | 49.06117 | 2.84033 | 12421 ft | 346 kts | 41° |
| 2026-05-04 19:54 | 49.07970 | 2.86409 | 13288 ft | 349 kts | 41° |
| 2026-05-04 19:54 | 49.09845 | 2.88817 | 14041 ft | 355 kts | 41° |
| 2026-05-04 19:54 | 49.11808 | 2.91139 | 14720 ft | 361 kts | 34° |
| 2026-05-04 19:54 | 49.14039 | 2.92988 | 15434 ft | 367 kts | 22° |
| 2026-05-04 19:55 | 49.16479 | 2.94217 | 16118 ft | 372 kts | 16° |
| 2026-05-04 19:55 | 49.19012 | 2.95157 | 16662 ft | 375 kts | 12° |
| 2026-05-04 19:55 | 49.21570 | 2.95899 | 17171 ft | 380 kts | 10° |
| 2026-05-04 19:55 | 49.24189 | 2.96555 | 17700 ft | 383 kts | 9° |
| 2026-05-04 19:56 | 49.26844 | 2.97187 | 18213 ft | 387 kts | 8° |
| 2026-05-04 19:56 | 49.29517 | 2.97827 | 18765 ft | 387 kts | 9° |
| 2026-05-04 19:56 | 49.32188 | 2.98484 | 19211 ft | 390 kts | 9° |
| 2026-05-04 19:56 | 49.34883 | 2.99166 | 19649 ft | 393 kts | 9° |
| 2026-05-04 19:57 | 49.37578 | 2.99863 | 20073 ft | 396 kts | 9° |
| 2026-05-04 19:57 | 49.40286 | 3.00573 | 20504 ft | 399 kts | 9° |
| 2026-05-04 19:57 | 49.43051 | 3.01303 | 20937 ft | 402 kts | 9° |
| 2026-05-04 19:57 | 49.45817 | 3.02036 | 21363 ft | 405 kts | 9° |
| 2026-05-04 19:58 | 49.48606 | 3.02775 | 21651 ft | 406 kts | 9° |
| 2026-05-04 19:58 | 49.51378 | 3.03510 | 21892 ft | 408 kts | 9° |
| 2026-05-04 19:58 | 49.54209 | 3.04260 | 21953 ft | 415 kts | 9° |
| 2026-05-04 19:58 | 49.57057 | 3.05018 | 21957 ft | 417 kts | 10° |
| 2026-05-04 19:59 | 49.59916 | 3.05863 | 21956 ft | 417 kts | 11° |
| 2026-05-04 19:59 | 49.62752 | 3.06781 | 21956 ft | 417 kts | 12° |
| 2026-05-04 19:59 | 49.65554 | 3.07722 | 21956 ft | 417 kts | 12° |
| 2026-05-04 19:59 | 49.68410 | 3.08685 | 21956 ft | 417 kts | 12° |
| 2026-05-04 20:00 | 49.71239 | 3.09632 | 21957 ft | 417 kts | 12° |
| 2026-05-04 20:00 | 49.74084 | 3.10575 | 21958 ft | 417 kts | 12° |
| 2026-05-04 20:00 | 49.76931 | 3.11510 | 21958 ft | 418 kts | 12° |
| 2026-05-04 20:00 | 49.79780 | 3.12441 | 21958 ft | 418 kts | 12° |
| 2026-05-04 20:01 | 49.82615 | 3.13366 | 21954 ft | 418 kts | 12° |
| 2026-05-04 20:01 | 49.85480 | 3.14300 | 21956 ft | 417 kts | 12° |
| 2026-05-04 20:01 | 49.88326 | 3.15229 | 21953 ft | 417 kts | 12° |
| 2026-05-04 20:01 | 49.91142 | 3.16150 | 21956 ft | 417 kts | 12° |
| 2026-05-04 20:02 | 49.93982 | 3.17080 | 21957 ft | 417 kts | 12° |
| 2026-05-04 20:02 | 49.96822 | 3.18011 | 21958 ft | 416 kts | 12° |
| 2026-05-04 20:02 | 49.99661 | 3.18944 | 21955 ft | 416 kts | 11° |
| 2026-05-04 20:02 | 50.02499 | 3.19877 | 21961 ft | 415 kts | 12° |
| 2026-05-04 20:03 | 50.05315 | 3.20804 | 21961 ft | 415 kts | 12° |
| 2026-05-04 20:03 | 50.08105 | 3.21723 | 21961 ft | 414 kts | 12° |
| 2026-05-04 20:03 | 50.10976 | 3.22671 | 21964 ft | 414 kts | 12° |
| 2026-05-04 20:03 | 50.13758 | 3.23590 | 21963 ft | 414 kts | 12° |
| 2026-05-04 20:04 | 50.16571 | 3.24520 | 21964 ft | 414 kts | 12° |
| 2026-05-04 20:04 | 50.19402 | 3.25457 | 21964 ft | 413 kts | 12° |
| 2026-05-04 20:04 | 50.22220 | 3.26392 | 21964 ft | 413 kts | 12° |
| 2026-05-04 20:04 | 50.25035 | 3.27326 | 21964 ft | 413 kts | 12° |
| 2026-05-04 20:05 | 50.27844 | 3.28260 | 21964 ft | 413 kts | 12° |
| 2026-05-04 20:05 | 50.30635 | 3.29189 | 21967 ft | 413 kts | 12° |
| 2026-05-04 20:05 | 50.33450 | 3.30126 | 21967 ft | 413 kts | 12° |
| 2026-05-04 20:05 | 50.36260 | 3.31064 | 21966 ft | 413 kts | 12° |
| 2026-05-04 20:06 | 50.39043 | 3.31993 | 21981 ft | 413 kts | 12° |
| 2026-05-04 20:06 | 50.41863 | 3.32936 | 21982 ft | 413 kts | 12° |
| 2026-05-04 20:06 | 50.44671 | 3.33876 | 21984 ft | 412 kts | 12° |
| 2026-05-04 20:06 | 50.47475 | 3.34816 | 21986 ft | 412 kts | 12° |
| 2026-05-04 20:07 | 50.50275 | 3.35806 | 21986 ft | 412 kts | 17° |
| 2026-05-04 20:07 | 50.52989 | 3.37306 | 21988 ft | 412 kts | 21° |
| 2026-05-04 20:07 | 50.55653 | 3.38967 | 21987 ft | 412 kts | 22° |
| 2026-05-04 20:07 | 50.58296 | 3.40728 | 21985 ft | 412 kts | 24° |
| 2026-05-04 20:08 | 50.60924 | 3.42543 | 21954 ft | 410 kts | 24° |
| 2026-05-04 20:08 | 50.63502 | 3.44345 | 21331 ft | 400 kts | 24° |
| 2026-05-04 20:08 | 50.65991 | 3.46091 | 20587 ft | 389 kts | 24° |
| 2026-05-04 20:08 | 50.68429 | 3.47797 | 20183 ft | 384 kts | 24° |
| 2026-05-04 20:09 | 50.70894 | 3.49518 | 19706 ft | 386 kts | 24° |
| 2026-05-04 20:09 | 50.73353 | 3.51229 | 19199 ft | 384 kts | 24° |
| 2026-05-04 20:09 | 50.75785 | 3.52918 | 18712 ft | 381 kts | 24° |
| 2026-05-04 20:09 | 50.78214 | 3.54605 | 18199 ft | 379 kts | 24° |
| 2026-05-04 20:10 | 50.80624 | 3.56279 | 17658 ft | 375 kts | 24° |
| 2026-05-04 20:10 | 50.83004 | 3.57933 | 17163 ft | 371 kts | 24° |
| 2026-05-04 20:10 | 50.85356 | 3.59571 | 16681 ft | 367 kts | 24° |
| 2026-05-04 20:10 | 50.87681 | 3.61191 | 16199 ft | 364 kts | 24° |
| 2026-05-04 20:11 | 50.89973 | 3.62791 | 15722 ft | 361 kts | 24° |
| 2026-05-04 20:11 | 50.92262 | 3.64400 | 15240 ft | 359 kts | 24° |
| 2026-05-04 20:11 | 50.94533 | 3.66018 | 14780 ft | 356 kts | 24° |
| 2026-05-04 20:11 | 50.96781 | 3.67631 | 14289 ft | 354 kts | 24° |
| 2026-05-04 20:12 | 50.99021 | 3.69244 | 13819 ft | 352 kts | 24° |
| 2026-05-04 20:12 | 51.01232 | 3.70838 | 13309 ft | 349 kts | 24° |
| 2026-05-04 20:12 | 51.03435 | 3.72428 | 12839 ft | 345 kts | 24° |
| 2026-05-04 20:12 | 51.05618 | 3.74003 | 12365 ft | 342 kts | 24° |
| 2026-05-04 20:13 | 51.07770 | 3.75556 | 11910 ft | 339 kts | 24° |
| 2026-05-04 20:13 | 51.09910 | 3.77101 | 11440 ft | 335 kts | 24° |
| 2026-05-04 20:13 | 51.12029 | 3.78633 | 11001 ft | 333 kts | 24° |
| 2026-05-04 20:13 | 51.14093 | 3.80125 | 10889 ft | 317 kts | 24° |
| 2026-05-04 20:14 | 51.16031 | 3.81527 | 10802 ft | 302 kts | 25° |
| 2026-05-04 20:14 | 51.17905 | 3.82885 | 10675 ft | 290 kts | 25° |
| 2026-05-04 20:14 | 51.19708 | 3.84192 | 10550 ft | 281 kts | 25° |
| 2026-05-04 20:14 | 51.21457 | 3.85462 | 10367 ft | 275 kts | 25° |
| 2026-05-04 20:15 | 51.23179 | 3.86805 | 10018 ft | 275 kts | 30° |
| 2026-05-04 20:15 | 51.24833 | 3.88396 | 9524 ft | 278 kts | 32° |
| 2026-05-04 20:15 | 51.26489 | 3.90060 | 9019 ft | 281 kts | 32° |
| 2026-05-04 20:15 | 51.28124 | 3.91730 | 8687 ft | 278 kts | 33° |
| 2026-05-04 20:16 | 51.29739 | 3.93390 | 8376 ft | 275 kts | 33° |
| 2026-05-04 20:16 | 51.31330 | 3.95031 | 8070 ft | 276 kts | 33° |
| 2026-05-04 20:16 | 51.32951 | 3.96706 | 7751 ft | 275 kts | 32° |
| 2026-05-04 20:16 | 51.34551 | 3.98362 | 7451 ft | 273 kts | 32° |
| 2026-05-04 20:17 | 51.36146 | 4.00016 | 7124 ft | 272 kts | 32° |
| 2026-05-04 20:17 | 51.37719 | 4.01649 | 6865 ft | 266 kts | 32° |
| 2026-05-04 20:17 | 51.39235 | 4.03224 | 6732 ft | 251 kts | 32° |
| 2026-05-04 20:17 | 51.40186 | 4.04213 | 6575 ft | 243 kts | 32° |
| 2026-05-04 20:18 | 51.42026 | 4.06127 | 6111 ft | 234 kts | 32° |
| 2026-05-04 20:18 | 51.43391 | 4.07547 | 5647 ft | 233 kts | 32° |
| 2026-05-04 20:18 | 51.44739 | 4.08951 | 5358 ft | 231 kts | 32° |
| 2026-05-04 20:18 | 51.45654 | 4.09905 | 5187 ft | 232 kts | 33° |
| 2026-05-04 20:19 | 51.46982 | 4.11290 | 4911 ft | 230 kts | 33° |
| 2026-05-04 20:19 | 51.48323 | 4.12688 | 4626 ft | 229 kts | 32° |
| 2026-05-04 20:19 | 51.49753 | 4.13795 | 4380 ft | 226 kts | 14° |
| 2026-05-04 20:19 | 51.51275 | 4.13855 | 4264 ft | 218 kts | 348° |
| 2026-05-04 20:20 | 51.52591 | 4.12777 | 4128 ft | 211 kts | 321° |
| 2026-05-04 20:20 | 51.53310 | 4.10768 | 3822 ft | 214 kts | 283° |
| 2026-05-04 20:20 | 51.53277 | 4.08373 | 3513 ft | 216 kts | 263° |
| 2026-05-04 20:20 | 51.52802 | 4.06087 | 3199 ft | 218 kts | 242° |
| 2026-05-04 20:21 | 51.51743 | 4.04423 | 2880 ft | 220 kts | 206° |
| 2026-05-04 20:21 | 51.50251 | 4.04114 | 2457 ft | 221 kts | 166° |
| 2026-05-04 20:21 | 51.47632 | 4.06433 | 1877 ft | 204 kts | 142° |
| 2026-05-04 20:22 | 51.46503 | 4.07675 | 1963 ft | 191 kts | 142° |
| 2026-05-04 20:22 | 51.45411 | 4.08865 | 2007 ft | 188 kts | 142° |
| 2026-05-04 20:22 | 51.44322 | 4.10029 | 2003 ft | 187 kts | 143° |
| 2026-05-04 20:22 | 51.43281 | 4.11118 | 1999 ft | 173 kts | 143° |
| 2026-05-04 20:23 | 51.42315 | 4.12116 | 2010 ft | 163 kts | 143° |
| 2026-05-04 20:23 | 51.41370 | 4.13104 | 2006 ft | 161 kts | 139° |
| 2026-05-04 20:23 | 51.40708 | 4.14458 | 2000 ft | 152 kts | 106° |
| 2026-05-04 20:23 | 51.40614 | 4.16024 | 1997 ft | 134 kts | 75° |
| 2026-05-04 20:24 | 51.40916 | 4.17401 | 2009 ft | 130 kts | 63° |
| 2026-05-04 20:24 | 51.41266 | 4.18754 | 1910 ft | 133 kts | 67° |
| 2026-05-04 20:24 | 51.41586 | 4.20146 | 1732 ft | 133 kts | 67° |
| 2026-05-04 20:24 | 51.41909 | 4.21521 | 1531 ft | 132 kts | 68° |
| 2026-05-04 20:25 | 51.42233 | 4.22898 | 1352 ft | 131 kts | 66° |
| 2026-05-04 20:25 | 51.42552 | 4.24247 | 1166 ft | 131 kts | 66° |
| 2026-05-04 20:25 | 51.42873 | 4.25613 | 993 ft | 131 kts | 66° |
| 2026-05-04 20:25 | 51.43193 | 4.26972 | 817 ft | 130 kts | 65° |
| 2026-05-04 20:26 | 51.43509 | 4.28333 | 644 ft | 130 kts | 65° |
| 2026-05-04 20:26 | 51.43828 | 4.29693 | 465 ft | 130 kts | 66° |
| 2026-05-04 20:26 | 51.44146 | 4.31049 | 313 ft | 130 kts | 66° |
| 2026-05-04 20:26 | 51.44474 | 4.32399 | 122 ft | 129 kts | 65° |
| 2026-05-04 20:27 | 51.44778 | 4.33685 | 57 ft | 108 kts | 70° |
| 2026-05-04 20:27 | 51.44972 | 4.34505 | 56 ft | 49 kts | 69° |
| 2026-05-04 20:27 | 51.45042 | 4.34800 | 56 ft | 14 kts | 70° |
| 2026-05-04 20:27 | 51.45025 | 4.34857 | 53 ft | 4 kts | 140° |
| 2026-05-04 20:28 | 51.45002 | 4.34873 | 53 ft | 5 kts | 159° |
| 2026-05-04 20:28 | 51.44938 | 4.34913 | 54 ft | 10 kts | 159° |
| 2026-05-04 20:28 | 51.44890 | 4.34870 | 57 ft | 13 kts | 240° |
| 2026-05-04 20:28 | 51.44845 | 4.34671 | 55 ft | 25 kts | 251° |
| 2026-05-04 20:29 | 51.44774 | 4.34378 | 55 ft | 29 kts | 249° |
| 2026-05-04 20:29 | 51.44704 | 4.34082 | 55 ft | 29 kts | 249° |
| 2026-05-04 20:29 | 51.44632 | 4.33772 | 59 ft | 28 kts | 249° |
| 2026-05-04 20:29 | 51.44562 | 4.33479 | 59 ft | 28 kts | 249° |
| 2026-05-04 20:30 | 51.44493 | 4.33183 | 56 ft | 29 kts | 249° |
| 2026-05-04 20:30 | 51.44420 | 4.32877 | 56 ft | 30 kts | 249° |
| 2026-05-04 20:30 | 51.44379 | 4.32707 | 56 ft | 6 kts | 242° |
| 2026-05-04 20:30 | 51.44353 | 4.32693 | 59 ft | 3 kts | 179° |
| 2026-05-04 20:31 | 51.44318 | 4.32703 | 58 ft | 8 kts | 172° |
| 2026-05-04 20:31 | 51.44262 | 4.32700 | 59 ft | 7 kts | 180° |
| 2026-05-04 20:31 | 51.44205 | 4.32706 | 57 ft | 9 kts | 178° |
| 2026-05-04 20:31 | 51.44182 | 4.32710 | 58 ft | 0 kts | 169° |